createdAt,value
2019-03-05T00:01:04.920Z,97199.80
2019-03-05T00:03:34.167Z,97207.66
2019-03-05T00:06:03.455Z,97191.19
2019-03-05T00:08:33.062Z,97214.60
2019-03-05T00:11:02.324Z,97200.07
2019-03-05T00:13:33.997Z,97203.08
2019-03-05T00:16:03.254Z,97202.30
2019-03-05T00:18:32.495Z,97224.16
2019-03-05T00:21:01.865Z,97217.77
2019-03-05T00:23:49.905Z,97219.26
2019-03-05T00:26:21.866Z,97223.34
2019-03-05T00:29:06.267Z,97215.23
2019-03-05T00:31:37.498Z,97220.19
2019-03-05T00:34:43.456Z,97220.95
2019-03-05T00:37:44.210Z,97209.52
2019-03-05T00:40:36.682Z,97207.38
2019-03-05T00:43:12.194Z,97218.16
2019-03-05T00:46:10.485Z,97213.05
2019-03-05T00:49:29.933Z,97214.52
2019-03-05T00:52:09.871Z,97202.70
2019-03-05T00:55:17.396Z,97221.63
2019-03-05T00:58:29.659Z,97224.73
2019-03-05T01:01:11.794Z,97215.31
2019-03-05T01:04:03.422Z,97216.84
2019-03-05T01:06:33.099Z,97207.22
2019-03-05T01:09:02.343Z,97223.16
2019-03-05T01:11:31.580Z,97230.95
2019-03-05T01:14:01.386Z,97230.45
2019-03-05T01:16:32.734Z,97225.70
2019-03-05T01:19:01.999Z,97227.13
2019-03-05T01:21:31.209Z,97228.19
2019-03-05T01:24:00.604Z,97242.31
2019-03-05T01:26:29.836Z,97249.73
2019-03-05T01:28:59.051Z,97231.67
2019-03-05T01:31:50.195Z,97242.05
2019-03-05T01:34:24.260Z,97245.69
2019-03-05T01:36:57.488Z,97232.99
2019-03-05T01:39:34.430Z,97227.11
2019-03-05T01:42:03.935Z,97230.75
2019-03-05T01:44:33.222Z,97238.45
2019-03-05T01:47:02.512Z,97238.35
2019-03-05T01:49:31.796Z,97240.97
2019-03-05T01:52:01.017Z,97251.53
2019-03-05T01:54:30.598Z,97252.61
2019-03-05T01:56:59.838Z,97249.25
2019-03-05T01:59:29.907Z,97257.36
2019-03-05T02:01:59.206Z,97257.07
2019-03-05T02:04:30.010Z,97253.00
2019-03-05T02:06:59.315Z,97249.33
2019-03-05T02:09:28.541Z,97246.69
2019-03-05T02:11:57.842Z,97256.11
2019-03-05T02:14:27.052Z,97267.00
2019-03-05T02:16:56.678Z,97265.14
2019-03-05T02:19:38.803Z,97264.72
2019-03-05T02:22:11.105Z,97263.75
2019-03-05T02:25:25.111Z,97269.74
2019-03-05T02:28:24.087Z,97261.92
2019-03-05T02:31:27.329Z,97264.88
2019-03-05T02:34:21.193Z,97265.17
2019-03-05T02:37:09.761Z,97284.88
2019-03-05T02:40:17.170Z,97284.23
2019-03-05T02:43:17.485Z,97256.72
2019-03-05T02:45:59.005Z,97281.39
2019-03-05T02:48:49.704Z,97277.74
2019-03-05T02:51:36.826Z,97278.42
2019-03-05T02:55:05.504Z,97277.81
2019-03-05T02:57:33.325Z,97281.17
2019-03-05T03:00:02.641Z,97274.28
2019-03-05T03:02:45.951Z,97276.31
2019-03-05T03:05:34.348Z,97279.91
2019-03-05T03:08:03.415Z,97283.88
2019-03-05T03:10:32.687Z,97280.73
2019-03-05T03:13:03.229Z,97284.91
2019-03-05T03:15:32.448Z,97271.41
2019-03-05T03:18:02.011Z,97259.02
2019-03-05T03:20:31.236Z,97280.86
2019-03-05T03:23:00.481Z,97286.06
2019-03-05T03:25:29.702Z,97279.37
2019-03-05T03:27:59.270Z,97282.52
2019-03-05T03:30:30.539Z,97296.34
2019-03-05T03:32:59.796Z,97305.28
2019-03-05T03:35:30.689Z,97312.91
2019-03-05T03:37:59.941Z,97298.68
2019-03-05T03:40:29.158Z,97298.18
2019-03-05T03:42:58.603Z,97296.25
2019-03-05T03:45:28.369Z,97304.27
2019-03-05T03:47:57.621Z,97305.81
2019-03-05T03:50:26.887Z,97309.66
2019-03-05T03:52:56.194Z,97306.83
2019-03-05T03:55:25.713Z,97305.81
2019-03-05T03:57:54.952Z,97303.80
2019-03-05T04:00:25.354Z,97309.68
2019-03-05T04:02:55.583Z,97310.88
2019-03-05T04:05:25.447Z,97308.95
2019-03-05T04:07:54.711Z,97308.13
2019-03-05T04:10:23.962Z,97316.98
2019-03-05T04:12:53.490Z,97311.80
2019-03-05T04:15:23.993Z,97313.52
2019-03-05T04:17:53.307Z,97313.94
2019-03-05T04:20:44.525Z,97310.16
2019-03-05T04:23:13.758Z,97307.44
2019-03-05T04:25:42.986Z,97301.63
2019-03-05T04:28:12.231Z,97302.34
2019-03-05T04:30:41.451Z,97297.68
2019-03-05T04:33:10.692Z,97303.37
2019-03-05T04:35:39.917Z,97294.92
2019-03-05T04:38:09.162Z,97292.29
2019-03-05T04:40:39.302Z,97296.24
2019-03-05T04:43:08.577Z,97298.80
2019-03-05T04:46:15.453Z,97308.92
2019-03-05T04:48:46.386Z,97305.27
2019-03-05T04:51:22.911Z,97314.16
2019-03-05T04:53:52.155Z,97310.73
2019-03-05T04:56:22.563Z,97319.42
2019-03-05T04:58:51.808Z,97329.88
2019-03-05T05:01:21.027Z,97330.10
2019-03-05T05:03:51.980Z,97329.32
2019-03-05T05:06:21.997Z,97315.02
2019-03-05T05:08:51.438Z,97322.94
2019-03-05T05:11:20.698Z,97318.08
2019-03-05T05:13:49.980Z,97317.25
2019-03-05T05:16:19.194Z,97320.59
2019-03-05T05:18:48.522Z,97322.19
2019-03-05T05:21:17.758Z,97321.41
2019-03-05T05:23:47.347Z,97321.41
2019-03-05T05:26:17.830Z,97320.46
2019-03-05T05:28:47.346Z,97321.16
2019-03-05T05:31:16.710Z,97324.61
2019-03-05T05:33:45.971Z,97333.34
2019-03-05T05:36:15.368Z,97331.30
2019-03-05T05:38:44.578Z,97327.25
2019-03-05T05:41:13.818Z,97332.59
2019-03-05T05:43:43.045Z,97331.20
2019-03-05T05:46:13.399Z,97327.05
2019-03-05T05:48:42.734Z,97323.72
2019-03-05T05:51:11.986Z,97324.83
2019-03-05T05:53:42.381Z,97325.16
2019-03-05T05:56:11.650Z,97335.21
2019-03-05T05:58:43.168Z,97339.87
2019-03-05T06:01:13.895Z,97334.92
2019-03-05T06:03:44.283Z,97333.60
2019-03-05T06:06:13.528Z,97336.65
2019-03-05T06:08:42.756Z,97334.71
2019-03-05T06:11:13.044Z,97339.81
2019-03-05T06:13:42.305Z,97347.02
2019-03-05T06:16:11.551Z,97350.15
2019-03-05T06:18:42.045Z,97346.80
2019-03-05T06:21:11.281Z,97339.78
2019-03-05T06:23:40.532Z,97345.68
2019-03-05T06:26:12.091Z,97349.81
2019-03-05T06:28:41.311Z,97350.52
2019-03-05T06:31:10.579Z,97346.74
2019-03-05T06:33:42.274Z,97342.54
2019-03-05T06:36:11.518Z,97347.64
2019-03-05T06:38:41.152Z,97345.11
2019-03-05T06:41:10.411Z,97354.88
2019-03-05T06:43:41.088Z,97360.28
2019-03-05T06:46:10.326Z,97362.31
2019-03-05T06:48:39.542Z,97363.82
2019-03-05T06:51:08.775Z,97365.14
2019-03-05T06:53:37.993Z,97368.77
2019-03-05T06:56:07.235Z,97367.11
2019-03-05T06:58:36.449Z,97363.13
2019-03-05T07:01:07.013Z,97352.80
2019-03-05T07:03:36.297Z,97358.73
2019-03-05T07:06:41.255Z,97357.59
2019-03-05T07:09:21.112Z,97363.24
2019-03-05T07:12:15.079Z,97359.61
2019-03-05T07:15:20.014Z,97359.03
2019-03-05T07:17:53.818Z,97354.14
2019-03-05T07:20:46.885Z,97365.64
2019-03-05T07:23:27.618Z,97362.70
2019-03-05T07:25:56.835Z,97362.22
2019-03-05T07:28:26.106Z,97367.44
2019-03-05T07:30:55.366Z,97359.91
2019-03-05T07:33:24.614Z,97360.73
2019-03-05T07:35:53.867Z,97373.08
2019-03-05T07:38:23.107Z,97375.22
2019-03-05T07:40:53.101Z,97379.80
2019-03-05T07:43:22.655Z,97393.31
2019-03-05T07:45:51.901Z,97400.36
2019-03-05T07:48:21.147Z,97403.44
2019-03-05T07:50:50.375Z,97415.44
2019-03-05T07:53:19.622Z,97421.27
2019-03-05T07:55:48.899Z,97401.83
2019-03-05T07:58:18.968Z,97396.97
2019-03-05T08:00:48.187Z,97409.16
2019-03-05T08:03:17.415Z,97413.12
2019-03-05T08:05:49.809Z,97419.44
2019-03-05T08:08:54.716Z,97426.07
2019-03-05T08:11:25.060Z,97417.03
2019-03-05T08:14:38.664Z,97426.03
2019-03-05T08:17:08.295Z,97423.77
2019-03-05T08:19:37.557Z,97422.70
2019-03-05T08:22:08.968Z,97423.03
2019-03-05T08:24:38.255Z,97410.80
2019-03-05T08:27:07.517Z,97414.83
2019-03-05T08:29:37.658Z,97442.37
2019-03-05T08:32:06.870Z,97423.44
2019-03-05T08:34:36.111Z,97433.44
2019-03-05T08:37:05.349Z,97442.78
2019-03-05T08:39:34.898Z,97433.06
2019-03-05T08:42:04.523Z,97437.51
2019-03-05T08:44:33.966Z,97415.36
2019-03-05T08:47:04.034Z,97426.77
2019-03-05T08:49:33.451Z,97443.02
2019-03-05T08:52:03.449Z,97429.97
2019-03-05T08:54:32.715Z,97439.70
2019-03-05T08:57:01.932Z,97429.17
2019-03-05T08:59:32.662Z,97418.70
2019-03-05T09:02:02.229Z,97420.91
2019-03-05T09:04:31.469Z,97438.14
2019-03-05T09:07:00.710Z,97436.73
2019-03-05T09:09:30.374Z,97431.57
2019-03-05T09:11:59.832Z,97441.33
2019-03-05T09:14:31.311Z,97430.04
2019-03-05T09:17:00.528Z,97436.64
2019-03-05T09:19:30.157Z,97431.45
2019-03-05T09:21:59.380Z,97446.98
2019-03-05T09:24:28.629Z,97439.34
2019-03-05T09:26:57.848Z,97435.41
2019-03-05T09:29:27.132Z,97434.54
2019-03-05T09:31:56.370Z,97438.00
2019-03-05T09:34:25.845Z,97424.37
2019-03-05T09:36:55.116Z,97428.23
2019-03-05T09:39:24.377Z,97435.31
2019-03-05T09:41:53.632Z,97432.23
2019-03-05T09:44:24.804Z,97418.30
2019-03-05T09:46:54.069Z,97439.02
2019-03-05T09:49:23.309Z,97438.42
2019-03-05T09:51:52.597Z,97432.88
2019-03-05T09:54:21.849Z,97436.69
2019-03-05T09:56:51.063Z,97437.52
2019-03-05T09:59:20.291Z,97443.54
2019-03-05T10:01:53.760Z,97430.14
2019-03-05T10:04:23.497Z,97412.91
2019-03-05T10:06:52.709Z,97422.21
2019-03-05T10:09:25.861Z,97432.92
2019-03-05T10:11:56.816Z,97428.91
2019-03-05T10:14:25.963Z,97426.64
2019-03-05T10:16:55.192Z,97424.12
2019-03-05T10:19:24.447Z,97426.09
2019-03-05T10:21:53.665Z,97427.39
2019-03-05T10:24:22.925Z,97433.47
2019-03-05T10:26:52.467Z,97440.93
2019-03-05T10:29:21.955Z,97413.62
2019-03-05T10:31:51.471Z,97439.23
2019-03-05T10:34:20.720Z,97428.83
2019-03-05T10:36:54.474Z,97392.13
2019-03-05T10:39:30.915Z,97413.35
2019-03-05T10:41:57.832Z,97413.73
2019-03-05T10:44:27.874Z,97406.69
2019-03-05T10:46:58.346Z,97401.95
2019-03-05T10:49:27.920Z,97419.97
2019-03-05T10:51:58.920Z,97422.88
2019-03-05T10:54:28.174Z,97416.41
2019-03-05T10:56:57.439Z,97404.06
2019-03-05T10:59:27.419Z,97401.73
2019-03-05T11:01:57.819Z,97394.23
2019-03-05T11:04:27.044Z,97402.80
2019-03-05T11:06:56.773Z,97391.73
2019-03-05T11:09:33.124Z,97386.14
2019-03-05T11:12:03.456Z,97397.80
2019-03-05T11:14:35.676Z,97393.36
2019-03-05T11:17:05.031Z,97395.48
2019-03-05T11:19:34.464Z,97384.07
2019-03-05T11:22:03.749Z,97380.17
2019-03-05T11:24:32.974Z,97382.91
2019-03-05T11:27:03.437Z,97385.51
2019-03-05T11:29:32.686Z,97382.34
2019-03-05T11:32:03.457Z,97379.36
2019-03-05T11:34:32.752Z,97382.66
2019-03-05T11:37:02.009Z,97374.93
2019-03-05T11:39:31.242Z,97380.24
2019-03-05T11:42:00.484Z,97365.91
2019-03-05T11:44:29.704Z,97384.91
2019-03-05T11:46:58.961Z,97374.21
2019-03-05T11:49:28.200Z,97387.36
2019-03-05T11:51:59.344Z,97350.22
2019-03-05T11:54:28.605Z,97371.50
2019-03-05T11:56:57.857Z,97336.97
2019-03-05T11:59:27.308Z,97380.46
2019-03-05T12:01:56.562Z,97349.68
2019-03-05T12:04:26.113Z,97359.20
2019-03-05T12:06:57.957Z,97395.83
2019-03-05T12:09:27.473Z,97367.00
2019-03-05T12:11:56.838Z,97370.29
2019-03-05T12:14:26.417Z,97366.29
2019-03-05T12:16:56.018Z,97368.48
2019-03-05T12:19:25.256Z,97361.83
2019-03-05T12:21:54.502Z,97343.25
2019-03-05T12:24:24.319Z,97367.99
2019-03-05T12:26:54.823Z,97348.37
2019-03-05T12:29:24.053Z,97344.12
2019-03-05T12:31:53.303Z,97348.27
2019-03-05T12:34:23.813Z,97358.51
2019-03-05T12:36:54.678Z,97348.32
2019-03-05T12:39:23.915Z,97350.25
2019-03-05T12:41:53.209Z,97347.88
2019-03-05T12:44:22.802Z,97363.98
2019-03-05T12:46:52.068Z,97344.34
2019-03-05T12:49:21.308Z,97342.40
2019-03-05T12:51:50.560Z,97348.91
2019-03-05T12:54:19.801Z,97355.56
2019-03-05T12:56:50.274Z,97356.34
2019-03-05T12:59:19.491Z,97332.00
2019-03-05T13:01:48.747Z,97357.15
2019-03-05T13:04:17.991Z,97352.33
2019-03-05T13:06:47.218Z,97349.70
2019-03-05T13:09:19.549Z,97353.08
2019-03-05T13:11:49.822Z,97324.54
2019-03-05T13:14:20.114Z,97353.94
2019-03-05T13:16:50.768Z,97378.14
2019-03-05T13:19:21.597Z,97369.11
2019-03-05T13:21:50.819Z,97361.14
2019-03-05T13:24:20.078Z,97364.91
2019-03-05T13:26:49.290Z,97371.37
2019-03-05T13:29:20.528Z,97349.03
2019-03-05T13:31:49.915Z,97351.90
2019-03-05T13:34:19.161Z,97356.36
2019-03-05T13:36:50.656Z,97350.88
2019-03-05T13:39:22.303Z,97337.64
2019-03-05T13:41:53.830Z,97325.77
2019-03-05T13:44:34.934Z,97330.41
2019-03-05T13:47:06.337Z,97334.56
2019-03-05T13:50:08.487Z,97338.27
2019-03-05T13:53:14.753Z,97334.15
2019-03-05T13:56:44.694Z,97327.84
2019-03-05T13:59:35.475Z,97326.72
2019-03-05T14:02:06.354Z,97332.72
2019-03-05T14:04:57.284Z,97321.73
2019-03-05T14:08:07.684Z,97325.84
2019-03-05T14:10:36.909Z,97319.41
2019-03-05T14:13:06.191Z,97319.07
2019-03-05T14:15:36.243Z,97320.18
2019-03-05T14:18:08.593Z,97322.31
2019-03-05T14:20:38.195Z,97326.95
2019-03-05T14:23:07.466Z,97329.93
2019-03-05T14:25:36.878Z,97353.63
2019-03-05T14:28:06.138Z,97343.50
2019-03-05T14:30:35.778Z,97328.66
2019-03-05T14:33:08.596Z,97355.30
2019-03-05T14:35:37.985Z,97364.20
2019-03-05T14:38:08.715Z,97368.50
2019-03-05T14:40:38.410Z,97340.45
2019-03-05T14:43:09.354Z,97358.36
2019-03-05T14:45:38.905Z,97371.87
2019-03-05T14:48:08.139Z,97372.50
2019-03-05T14:50:37.982Z,97373.78
2019-03-05T14:53:08.417Z,97385.02
2019-03-05T14:55:37.685Z,97389.75
2019-03-05T14:58:06.906Z,97393.41
2019-03-05T15:00:36.181Z,97401.76
2019-03-05T15:03:05.392Z,97377.09
2019-03-05T15:05:35.454Z,97404.02
2019-03-05T15:08:05.369Z,97387.77
2019-03-05T15:10:35.149Z,97407.55
2019-03-05T15:13:15.301Z,97404.14
2019-03-05T15:15:35.399Z,97395.52
2019-03-05T15:18:05.340Z,97402.97
2019-03-05T15:20:34.760Z,97395.45
2019-03-05T15:23:06.415Z,97395.69
2019-03-05T15:25:35.791Z,97397.52
2019-03-05T15:28:05.023Z,97407.32
2019-03-05T15:30:34.737Z,97412.48
2019-03-05T15:33:04.017Z,97416.05
2019-03-05T15:35:33.261Z,97421.64
2019-03-05T15:38:02.732Z,97427.04
2019-03-05T15:40:32.501Z,97439.62
2019-03-05T15:43:01.729Z,97426.23
2019-03-05T15:45:30.985Z,97422.78
2019-03-05T15:48:00.293Z,97437.78
2019-03-05T15:50:30.090Z,97432.31
2019-03-05T15:52:59.372Z,97446.27
2019-03-05T15:55:29.780Z,97420.83
2019-03-05T15:57:59.032Z,97438.59
2019-03-05T16:00:30.148Z,97438.63
2019-03-05T16:02:59.863Z,97468.98
2019-03-05T16:05:29.555Z,97443.17
2019-03-05T16:08:01.071Z,97451.22
2019-03-05T16:10:29.742Z,97459.02
2019-03-05T16:12:59.310Z,97456.58
2019-03-05T16:15:28.581Z,97460.66
2019-03-05T16:18:01.264Z,97461.58
2019-03-05T16:20:30.060Z,97460.27
2019-03-05T16:22:59.296Z,97466.80
2019-03-05T16:25:31.146Z,97477.59
2019-03-05T16:28:02.303Z,97466.41
2019-03-05T16:31:00.083Z,97474.52
2019-03-05T16:33:48.273Z,97481.95
2019-03-05T16:36:30.809Z,97476.59
2019-03-05T16:39:31.183Z,97496.20
2019-03-05T16:42:20.602Z,97493.98
2019-03-05T16:45:08.782Z,97495.09
2019-03-05T16:48:00.264Z,97506.19
2019-03-05T16:50:41.027Z,97500.11
2019-03-05T16:53:27.832Z,97500.63
2019-03-05T16:56:14.812Z,97502.64
2019-03-05T16:59:18.216Z,97510.17
2019-03-05T17:01:59.617Z,97511.02
2019-03-05T17:05:02.951Z,97528.19
2019-03-05T17:07:46.903Z,97524.92
2019-03-05T17:10:38.039Z,97523.29
2019-03-05T17:13:07.331Z,97525.03
2019-03-05T17:15:36.551Z,97531.43
2019-03-05T17:18:07.265Z,97536.30
2019-03-05T17:20:36.490Z,97542.60
2019-03-05T17:23:06.688Z,97543.23
2019-03-05T17:25:35.906Z,97552.16
2019-03-05T17:28:05.178Z,97529.61
2019-03-05T17:30:34.395Z,97551.25
2019-03-05T17:33:03.693Z,97541.92
2019-03-05T17:35:33.306Z,97550.84
2019-03-05T17:38:03.937Z,97549.11
2019-03-05T17:40:33.165Z,97547.08
2019-03-05T17:43:02.817Z,97561.23
2019-03-05T17:45:32.086Z,97576.88
2019-03-05T17:48:01.473Z,97585.43
2019-03-05T17:50:30.688Z,97591.41
2019-03-05T17:52:59.927Z,97596.61
2019-03-05T17:55:29.176Z,97599.95
2019-03-05T17:57:58.809Z,97605.34
2019-03-05T18:00:30.362Z,97614.59
2019-03-05T18:02:59.598Z,97615.09
2019-03-05T18:05:28.841Z,97628.64
2019-03-05T18:07:58.196Z,97630.05
2019-03-05T18:10:27.712Z,97637.77
2019-03-05T18:12:56.980Z,97633.92
2019-03-05T18:15:28.971Z,97647.23
2019-03-05T18:17:58.309Z,97659.73
2019-03-05T18:20:27.537Z,97660.03
2019-03-05T18:22:56.812Z,97665.31
2019-03-05T18:25:26.084Z,97667.46
2019-03-05T18:27:55.396Z,97664.41
2019-03-05T18:30:24.877Z,97666.97
2019-03-05T18:32:54.121Z,97674.69
2019-03-05T18:35:23.605Z,97675.19
2019-03-05T18:37:54.472Z,97677.55
2019-03-05T18:40:25.815Z,97687.29
2019-03-05T18:42:55.239Z,97682.71
2019-03-05T18:45:25.641Z,97685.47
2019-03-05T18:47:54.873Z,97693.41
2019-03-05T18:50:24.449Z,97699.92
2019-03-05T18:52:54.506Z,97692.66
2019-03-05T18:55:23.982Z,97685.77
2019-03-05T18:57:53.443Z,97693.69
2019-03-05T19:00:23.646Z,97687.04
2019-03-05T19:02:54.258Z,97690.50
2019-03-05T19:05:23.904Z,97699.33
2019-03-05T19:07:53.507Z,97693.50
2019-03-05T19:10:26.152Z,97706.20
2019-03-05T19:12:57.352Z,97711.98
2019-03-05T19:15:26.731Z,97713.70
2019-03-05T19:17:56.079Z,97709.75
2019-03-05T19:20:25.356Z,97713.64
2019-03-05T19:22:54.782Z,97717.91
2019-03-05T19:25:25.984Z,97726.54
2019-03-05T19:27:55.217Z,97734.47
2019-03-05T19:30:27.362Z,97728.77
2019-03-05T19:32:56.861Z,97739.86
2019-03-05T19:35:26.103Z,97732.31
2019-03-05T19:37:55.338Z,97741.45
2019-03-05T19:40:26.926Z,97743.44
2019-03-05T19:43:03.372Z,97744.94
2019-03-05T19:45:32.994Z,97743.92
2019-03-05T19:48:03.359Z,97743.06
2019-03-05T19:50:32.597Z,97751.78
2019-03-05T19:53:02.076Z,97756.97
2019-03-05T19:55:31.532Z,97766.18
2019-03-05T19:58:10.792Z,97769.52
2019-03-05T20:00:46.978Z,97771.20
2019-03-05T20:03:16.228Z,97775.75
2019-03-05T20:05:46.805Z,97778.00
2019-03-05T20:08:16.056Z,97784.49
2019-03-05T20:10:45.303Z,97791.09
2019-03-05T20:13:14.912Z,97787.80
2019-03-05T20:15:44.183Z,97788.22
2019-03-05T20:18:14.662Z,97793.80
2019-03-05T20:20:43.866Z,97791.55
2019-03-05T20:23:13.442Z,97797.37
2019-03-05T20:25:42.729Z,97793.64
2019-03-05T20:28:13.450Z,97802.62
2019-03-05T20:30:42.731Z,97804.69
2019-03-05T20:33:11.981Z,97810.30
2019-03-05T20:35:41.227Z,97812.58
2019-03-05T20:38:12.711Z,97806.67
2019-03-05T20:40:41.961Z,97811.20
2019-03-05T20:43:11.173Z,97809.16
2019-03-05T20:45:40.447Z,97816.84
2019-03-05T20:48:09.670Z,97820.73
2019-03-05T20:50:38.916Z,97832.48
2019-03-05T20:53:08.135Z,97841.02
2019-03-05T20:55:37.421Z,97847.30
2019-03-05T20:58:06.954Z,97848.52
2019-03-05T21:00:37.252Z,97856.23
2019-03-05T21:03:06.662Z,97860.38
2019-03-05T21:05:42.382Z,97865.48
2019-03-05T21:08:11.621Z,97862.26
2019-03-05T21:10:41.097Z,97861.44
2019-03-05T21:13:11.123Z,97866.55
2019-03-05T21:15:41.104Z,97870.35
2019-03-05T21:18:10.529Z,97870.14
2019-03-05T21:20:39.758Z,97874.17
2019-03-05T21:23:08.994Z,97877.59
2019-03-05T21:25:38.228Z,97877.59
2019-03-05T21:28:07.462Z,97873.64
2019-03-05T21:30:36.982Z,97889.22
2019-03-05T21:33:08.624Z,97886.84
2019-03-05T21:35:39.679Z,97885.45
2019-03-05T21:38:08.924Z,97882.42
2019-03-05T21:40:38.149Z,97885.25
2019-03-05T21:43:07.728Z,97885.16
2019-03-05T21:45:40.602Z,97891.50
2019-03-05T21:48:09.855Z,97884.99
2019-03-05T21:50:39.073Z,97887.48
2019-03-05T21:53:08.417Z,97888.80
2019-03-05T21:55:40.682Z,97897.02
2019-03-05T21:58:10.303Z,97894.95
2019-03-05T22:00:39.852Z,97886.13
2019-03-05T22:03:09.090Z,97889.47
2019-03-05T22:05:38.338Z,97888.97
2019-03-05T22:08:07.601Z,97897.13
2019-03-05T22:10:37.165Z,97895.48
2019-03-05T22:13:06.448Z,97892.67
2019-03-05T22:15:38.257Z,97898.84
2019-03-05T22:18:07.979Z,97892.73
2019-03-05T22:20:37.192Z,97900.53
2019-03-05T22:23:06.911Z,97900.48
2019-03-05T22:25:36.138Z,97902.75
2019-03-05T22:28:05.825Z,97898.55
2019-03-05T22:30:35.068Z,97907.30
2019-03-05T22:33:04.903Z,97914.48
2019-03-05T22:35:34.146Z,97924.61
2019-03-05T22:38:03.426Z,97917.56
2019-03-05T22:40:32.768Z,97917.88
2019-03-05T22:43:02.043Z,97914.85
2019-03-05T22:45:33.443Z,97910.97
2019-03-05T22:48:05.338Z,97915.16
2019-03-05T22:50:34.581Z,97918.63
2019-03-05T22:53:05.548Z,97924.39
2019-03-05T22:55:35.466Z,97921.31
2019-03-05T22:58:04.745Z,97922.50
2019-03-05T23:01:11.855Z,97923.48
2019-03-05T23:03:45.613Z,97922.85
2019-03-05T23:06:15.410Z,97926.04
2019-03-05T23:08:44.658Z,97932.25
2019-03-05T23:11:13.872Z,97924.08
2019-03-05T23:13:43.817Z,97931.12
2019-03-05T23:16:13.435Z,97938.28
2019-03-05T23:18:43.002Z,97944.44
2019-03-05T23:21:12.631Z,97948.29
2019-03-05T23:23:41.891Z,97948.29
2019-03-05T23:26:11.363Z,97954.17
2019-03-05T23:28:40.757Z,97955.44
2019-03-05T23:31:12.010Z,97949.75
2019-03-05T23:33:41.710Z,97951.45
2019-03-05T23:36:11.159Z,97951.08
2019-03-05T23:38:40.383Z,97950.35
2019-03-05T23:41:09.633Z,97951.28
2019-03-05T23:43:38.896Z,97944.27
2019-03-05T23:46:08.140Z,97949.52
2019-03-05T23:48:37.346Z,97942.05
2019-03-05T23:51:07.833Z,97952.10
2019-03-05T23:53:37.148Z,97950.13
2019-03-05T23:56:07.674Z,97961.25
2019-03-05T23:58:36.924Z,97955.84
